createdAt,value
2022-08-03T00:04:40.673Z,19.80
2022-08-03T00:09:45.549Z,19.70
2022-08-03T00:14:50.115Z,19.60
2022-08-03T00:19:56.066Z,19.60
2022-08-03T00:25:01.869Z,19.50
2022-08-03T00:30:08.290Z,19.40
2022-08-03T00:35:32.452Z,19.30
2022-08-03T00:40:38.635Z,19.30
2022-08-03T00:45:44.459Z,19.10
2022-08-03T00:50:52.134Z,19.00
2022-08-03T00:55:59.053Z,18.90
2022-08-03T01:01:07.087Z,18.90
2022-08-03T01:06:19.761Z,18.90
2022-08-03T01:11:33.722Z,18.90
2022-08-03T01:16:51.721Z,19.00
2022-08-03T01:22:28.802Z,19.00
2022-08-03T01:27:53.156Z,19.00
2022-08-03T01:33:05.354Z,19.00
2022-08-03T01:38:14.697Z,18.90
2022-08-03T01:44:26.756Z,18.80
2022-08-03T01:48:52.158Z,18.80
2022-08-03T01:53:58.069Z,18.80
2022-08-03T01:59:05.140Z,18.80
2022-08-03T02:04:13.554Z,18.70
2022-08-03T02:09:22.122Z,18.60
2022-08-03T02:14:29.101Z,18.60
2022-08-03T02:19:36.808Z,18.70
2022-08-03T02:24:41.738Z,18.70
2022-08-03T02:29:56.141Z,18.60
2022-08-03T02:35:04.991Z,18.60
2022-08-03T02:40:13.995Z,18.50
2022-08-03T02:45:22.627Z,18.50
2022-08-03T02:50:30.730Z,18.40
2022-08-03T02:55:36.846Z,18.30
2022-08-03T03:00:49.325Z,18.30
2022-08-03T03:05:57.502Z,18.10
2022-08-03T03:11:03.217Z,18.10
2022-08-03T03:16:09.347Z,18.10
2022-08-03T03:21:19.028Z,18.00
2022-08-03T03:26:23.805Z,18.00
2022-08-03T03:31:28.158Z,18.00
2022-08-03T03:36:33.909Z,18.00
2022-08-03T03:41:38.602Z,18.00
2022-08-03T03:46:43.485Z,18.00
2022-08-03T03:51:49.182Z,17.90
2022-08-03T03:56:53.895Z,17.90
2022-08-03T04:01:59.498Z,17.80
2022-08-03T04:07:22.674Z,17.80
2022-08-03T04:12:31.477Z,17.90
2022-08-03T04:17:37.038Z,17.90
2022-08-03T04:22:43.656Z,17.90
2022-08-03T04:28:21.026Z,18.00
2022-08-03T04:33:19.865Z,18.00
2022-08-03T04:38:28.256Z,18.10
2022-08-03T04:43:36.116Z,18.20
2022-08-03T04:48:44.761Z,18.30
2022-08-03T04:53:50.806Z,18.40
2022-08-03T04:58:55.515Z,18.50
2022-08-03T05:04:00.301Z,18.60
2022-08-03T05:09:06.071Z,18.70
2022-08-03T05:14:10.544Z,18.90
2022-08-03T05:19:14.730Z,19.00
2022-08-03T05:24:20.310Z,19.20
2022-08-03T05:29:24.533Z,19.30
2022-08-03T05:34:28.779Z,19.50
2022-08-03T05:39:34.428Z,19.60
2022-08-03T05:44:39.261Z,19.70
2022-08-03T05:49:43.708Z,19.90
2022-08-03T05:54:55.374Z,20.00
2022-08-03T06:00:01.363Z,20.40
2022-08-03T06:05:15.637Z,20.60
2022-08-03T06:10:35.601Z,20.80
2022-08-03T06:15:42.653Z,21.00
2022-08-03T06:20:47.207Z,21.20
2022-08-03T06:25:55.374Z,21.60
2022-08-03T06:30:59.906Z,21.80
2022-08-03T06:36:04.577Z,22.00
2022-08-03T06:41:10.250Z,22.20
2022-08-03T06:46:14.516Z,22.30
2022-08-03T06:51:18.972Z,22.90
2022-08-03T06:56:24.875Z,23.40
2022-08-03T07:01:29.454Z,24.10
2022-08-03T07:06:34.257Z,24.90
2022-08-03T07:11:40.119Z,26.00
2022-08-03T07:16:44.436Z,27.20
2022-08-03T07:21:48.760Z,27.90
2022-08-03T07:26:54.356Z,28.60
2022-08-03T07:31:58.735Z,29.10
2022-08-03T07:37:03.080Z,29.70
2022-08-03T07:42:08.906Z,30.10
2022-08-03T07:47:19.361Z,30.70
2022-08-03T07:52:44.856Z,31.40
2022-08-03T07:58:06.022Z,31.70
2022-08-03T08:03:10.668Z,32.20
2022-08-03T08:08:14.969Z,32.30
2022-08-03T08:13:20.665Z,32.40
2022-08-03T08:18:25.506Z,33.10
2022-08-03T08:23:42.452Z,33.90
2022-08-03T08:28:50.812Z,34.40
2022-08-03T08:34:04.145Z,35.10
2022-08-03T08:39:09.237Z,35.80
2022-08-03T08:44:15.730Z,36.30
2022-08-03T08:50:04.038Z,36.30
2022-08-03T08:55:22.051Z,36.90
2022-08-03T09:00:28.107Z,37.50
2022-08-03T09:05:55.437Z,38.20
2022-08-03T09:12:42.302Z,37.90
2022-08-03T09:33:06.564Z,40.30
2022-08-03T09:38:14.645Z,41.30
2022-08-03T09:43:20.248Z,42.00
2022-08-03T09:48:29.912Z,42.70
2022-08-03T09:53:59.308Z,43.00
2022-08-03T09:59:04.753Z,43.30
2022-08-03T10:04:17.042Z,43.60
2022-08-03T10:09:21.668Z,44.40
2022-08-03T10:14:31.712Z,44.70
2022-08-03T10:19:37.804Z,45.00
2022-08-03T10:24:53.718Z,44.70
2022-08-03T10:30:03.119Z,45.90
2022-08-03T10:35:20.672Z,46.30
2022-08-03T10:45:54.214Z,46.80
2022-08-03T10:51:00.656Z,47.30
2022-08-03T10:56:35.375Z,46.20
2022-08-03T11:01:58.799Z,46.30
2022-08-03T11:07:23.927Z,48.10
2022-08-03T11:12:32.413Z,49.30
2022-08-03T11:17:46.942Z,48.80
2022-08-03T11:23:02.930Z,47.50
2022-08-03T11:28:39.875Z,47.30
2022-08-03T11:34:05.533Z,48.00
2022-08-03T11:39:17.652Z,49.30
2022-08-03T11:44:47.484Z,49.70
2022-08-03T11:49:55.197Z,50.60
2022-08-03T11:55:01.304Z,50.30
2022-08-03T12:00:26.303Z,51.30
2022-08-03T12:05:51.297Z,51.80
2022-08-03T12:11:00.729Z,52.20
2022-08-03T12:16:05.756Z,52.70
2022-08-03T12:21:12.879Z,51.90
2022-08-03T12:26:19.781Z,50.70
2022-08-03T12:31:24.823Z,51.30
2022-08-03T12:36:34.126Z,51.10
2022-08-03T12:41:41.796Z,52.20
2022-08-03T12:46:48.056Z,52.50
2022-08-03T12:52:06.926Z,52.00
2022-08-03T12:57:15.911Z,52.80
2022-08-03T13:02:24.204Z,53.70
2022-08-03T13:07:31.254Z,53.10
2022-08-03T13:12:48.866Z,52.20
2022-08-03T13:17:53.816Z,52.60
2022-08-03T13:23:00.966Z,53.00
2022-08-03T13:28:09.931Z,52.70
2022-08-03T13:33:17.093Z,53.60
2022-08-03T13:38:21.821Z,54.10
2022-08-03T13:43:33.408Z,54.80
2022-08-03T13:48:38.788Z,54.70
2022-08-03T13:53:43.171Z,55.80
2022-08-03T13:58:49.040Z,55.80
2022-08-03T14:03:54.851Z,55.40
2022-08-03T14:09:00.770Z,56.00
2022-08-03T14:14:06.585Z,56.40
2022-08-03T14:19:26.282Z,56.40
2022-08-03T14:24:31.533Z,55.60
2022-08-03T14:29:37.207Z,55.70
2022-08-03T14:34:41.609Z,55.00
2022-08-03T14:40:02.385Z,55.50
2022-08-03T14:45:19.909Z,56.00
2022-08-03T14:50:38.677Z,51.80
2022-08-03T14:55:49.566Z,53.20
2022-08-03T15:00:57.450Z,53.00
2022-08-03T15:06:01.793Z,54.40
2022-08-03T15:11:06.162Z,54.40
2022-08-03T15:16:11.879Z,54.00
2022-08-03T15:21:20.706Z,53.20
2022-08-03T15:26:41.765Z,53.50
2022-08-03T15:31:47.889Z,53.80
2022-08-03T15:36:52.184Z,54.00
2022-08-03T15:41:56.849Z,53.20
2022-08-03T15:47:02.669Z,53.10
2022-08-03T15:52:07.058Z,51.60
2022-08-03T15:57:11.427Z,51.00
2022-08-03T16:02:17.248Z,50.90
2022-08-03T16:07:42.095Z,51.10
2022-08-03T16:13:06.643Z,51.30
2022-08-03T16:18:12.564Z,50.50
2022-08-03T16:23:19.458Z,50.70
2022-08-03T16:28:24.439Z,50.00
2022-08-03T16:33:30.189Z,48.90
2022-08-03T16:38:34.595Z,49.20
2022-08-03T16:43:38.914Z,48.30
2022-08-03T16:48:44.519Z,48.80
2022-08-03T16:54:05.357Z,49.20
2022-08-03T16:59:12.645Z,48.50
2022-08-03T17:04:18.491Z,48.50
2022-08-03T17:09:23.037Z,48.10
2022-08-03T17:14:28.526Z,46.90
2022-08-03T17:19:41.636Z,45.70
2022-08-03T17:24:54.939Z,42.60
2022-08-03T17:30:07.542Z,39.80
2022-08-03T17:35:14.911Z,37.90
2022-08-03T17:40:20.043Z,36.80
2022-08-03T17:45:52.180Z,36.10
2022-08-03T17:51:04.871Z,35.70
2022-08-03T17:56:46.433Z,35.10
2022-08-03T18:07:59.512Z,34.30
2022-08-03T18:13:12.428Z,34.00
2022-08-03T18:18:29.318Z,33.70
2022-08-03T18:23:40.105Z,33.40
2022-08-03T18:28:45.200Z,33.00
2022-08-03T18:34:17.261Z,32.70
2022-08-03T18:39:19.639Z,32.40
2022-08-03T18:44:37.420Z,32.00
2022-08-03T18:50:14.413Z,31.70
2022-08-03T18:55:33.690Z,31.30
2022-08-03T19:00:55.060Z,31.00
2022-08-03T19:06:14.607Z,30.70
2022-08-03T19:12:14.152Z,30.30
2022-08-03T19:17:09.538Z,30.00
2022-08-03T19:22:16.204Z,29.70
2022-08-03T19:27:26.988Z,29.50
2022-08-03T19:32:33.945Z,29.20
2022-08-03T19:37:40.097Z,29.00
2022-08-03T19:42:50.440Z,28.80
2022-08-03T19:48:09.676Z,28.60
2022-08-03T19:53:15.528Z,28.40
2022-08-03T19:58:31.859Z,28.20
2022-08-03T20:03:42.929Z,28.00
2022-08-03T20:08:51.644Z,27.80
2022-08-03T20:14:00.507Z,27.70
2022-08-03T20:19:05.211Z,27.50
2022-08-03T20:30:07.976Z,27.10
2022-08-03T20:35:12.585Z,26.90
2022-08-03T20:40:17.203Z,26.80
2022-08-03T20:45:59.187Z,26.80
2022-08-03T20:50:48.484Z,26.70
2022-08-03T20:56:02.136Z,26.50
2022-08-03T21:01:08.789Z,26.30
2022-08-03T21:06:27.480Z,26.10
2022-08-03T21:11:42.173Z,26.10
2022-08-03T21:13:05.167Z,34.60
2022-08-03T21:16:52.715Z,26.00
2022-08-03T21:21:58.865Z,26.00
2022-08-03T21:27:23.368Z,26.00
2022-08-03T21:32:32.596Z,25.80
2022-08-03T21:37:38.804Z,25.70
2022-08-03T21:42:46.441Z,25.50
2022-08-03T21:47:52.520Z,25.40
2022-08-03T21:52:59.866Z,25.20
2022-08-03T21:58:06.794Z,25.10
2022-08-03T22:03:17.168Z,25.00
2022-08-03T22:08:22.565Z,24.90
2022-08-03T22:13:43.705Z,24.80
2022-08-03T22:18:50.449Z,24.80
2022-08-03T22:24:00.712Z,24.70
2022-08-03T22:29:09.121Z,24.60
2022-08-03T22:34:15.068Z,24.50
2022-08-03T22:39:25.717Z,24.50
2022-08-03T22:44:32.605Z,24.60
2022-08-03T22:49:40.739Z,24.50
2022-08-03T23:00:24.874Z,24.30
2022-08-03T23:06:02.366Z,24.20
2022-08-03T23:11:09.010Z,24.20
2022-08-03T23:16:29.391Z,24.10
2022-08-03T23:22:01.025Z,24.10
2022-08-03T23:27:04.544Z,24.20
2022-08-03T23:32:11.492Z,24.30
2022-08-03T23:37:21.971Z,24.30
2022-08-03T23:42:29.668Z,24.20
2022-08-03T23:47:46.477Z,24.20
2022-08-03T23:53:11.936Z,24.00
2022-08-03T23:58:47.567Z,23.90
